createdAt,value
2022-11-21T00:02:01.684Z,0.45
2022-11-21T00:04:30.696Z,1.30
2022-11-21T00:07:00.016Z,0.70
2022-11-21T00:09:29.949Z,1.08
2022-11-21T00:11:59.089Z,2.97
2022-11-21T00:14:28.295Z,1.52
2022-11-21T00:16:57.732Z,0.68
2022-11-21T00:19:28.150Z,0.45
2022-11-21T00:21:57.167Z,0.38
2022-11-21T00:24:26.493Z,0.20
2022-11-21T00:26:55.669Z,0.57
2022-11-21T00:29:24.717Z,1.83
2022-11-21T00:31:53.779Z,1.30
2022-11-21T00:34:22.853Z,0.77
2022-11-21T00:36:53.441Z,1.23
2022-11-21T00:39:22.521Z,0.45
2022-11-21T00:41:51.790Z,0.30
2022-11-21T00:44:20.940Z,0.57
2022-11-21T00:46:52.567Z,1.25
2022-11-21T00:49:21.600Z,0.22
2022-11-21T00:51:50.563Z,0.13
2022-11-21T00:54:21.026Z,0.22
2022-11-21T00:56:49.999Z,0.63
2022-11-21T00:59:18.959Z,0.50
2022-11-21T01:01:50.417Z,0.17
2022-11-21T01:04:19.416Z,0.65
2022-11-21T01:06:48.476Z,0.47
2022-11-21T01:09:17.509Z,1.63
2022-11-21T01:11:48.087Z,0.73
2022-11-21T01:14:17.243Z,0.50
2022-11-21T01:16:46.229Z,1.73
2022-11-21T01:19:15.189Z,1.58
2022-11-21T01:21:44.250Z,1.15
2022-11-21T01:24:13.744Z,0.82
2022-11-21T01:26:42.760Z,0.77
2022-11-21T01:29:13.214Z,1.00
2022-11-21T01:31:42.349Z,1.08
2022-11-21T01:34:11.278Z,1.17
2022-11-21T01:36:40.399Z,0.73
2022-11-21T01:39:09.899Z,1.45
2022-11-21T01:41:40.434Z,0.60
2022-11-21T01:44:21.138Z,1.02
2022-11-21T01:46:51.830Z,0.63
2022-11-21T01:49:23.824Z,0.43
2022-11-21T01:51:58.998Z,0.55
2022-11-21T01:54:35.309Z,1.92
2022-11-21T01:57:09.830Z,0.77
2022-11-21T01:59:48.538Z,0.60
2022-11-21T02:02:22.083Z,0.75
2022-11-21T02:04:53.761Z,0.90
2022-11-21T02:07:24.958Z,0.73
2022-11-21T02:09:57.683Z,1.02
2022-11-21T02:12:31.460Z,1.10
2022-11-21T02:15:24.728Z,0.93
2022-11-21T02:17:53.793Z,0.70
2022-11-21T02:20:25.080Z,0.50
2022-11-21T02:23:02.652Z,0.50
2022-11-21T02:25:35.593Z,0.77
2022-11-21T02:28:07.351Z,1.25
2022-11-21T02:30:39.564Z,0.60
2022-11-21T02:33:09.354Z,1.73
2022-11-21T02:35:40.643Z,1.42
2022-11-21T02:38:17.383Z,1.27
2022-11-21T02:40:55.236Z,1.25
2022-11-21T02:43:26.444Z,1.05
2022-11-21T02:45:55.464Z,0.93
2022-11-21T02:48:24.652Z,0.63
2022-11-21T02:50:53.581Z,1.25
2022-11-21T02:53:22.500Z,0.93
2022-11-21T02:55:53.092Z,0.60
2022-11-21T02:58:22.164Z,0.93
2022-11-21T03:00:51.263Z,0.10
2022-11-21T03:03:20.446Z,0.52
2022-11-21T03:05:52.769Z,1.05
2022-11-21T03:08:21.949Z,0.60
2022-11-21T03:10:52.499Z,0.40
2022-11-21T03:13:21.555Z,0.80
2022-11-21T03:15:50.668Z,0.47
2022-11-21T03:18:19.701Z,0.17
2022-11-21T03:20:49.516Z,1.00
2022-11-21T03:23:18.611Z,0.20
2022-11-21T03:25:47.693Z,0.20
2022-11-21T03:28:19.508Z,0.10
2022-11-21T03:30:50.139Z,0.10
2022-11-21T03:33:19.162Z,0.10
2022-11-21T03:35:49.620Z,0.00
2022-11-21T03:38:18.599Z,0.47
2022-11-21T03:40:47.677Z,0.82
2022-11-21T03:43:16.554Z,0.30
2022-11-21T03:45:49.284Z,0.75
2022-11-21T03:48:18.282Z,0.25
2022-11-21T03:50:47.304Z,0.10
2022-11-21T03:53:16.340Z,0.82
2022-11-21T03:55:45.314Z,0.05
2022-11-21T03:58:14.321Z,0.30
2022-11-21T04:00:43.419Z,0.20
2022-11-21T04:03:13.923Z,0.65
2022-11-21T04:05:42.850Z,0.10
2022-11-21T04:08:11.844Z,0.80
2022-11-21T04:10:40.933Z,0.10
2022-11-21T04:13:12.605Z,0.35
2022-11-21T04:15:43.015Z,0.57
2022-11-21T04:18:14.423Z,0.65
2022-11-21T04:20:44.043Z,0.20
2022-11-21T04:23:13.993Z,0.50
2022-11-21T04:25:43.157Z,0.10
2022-11-21T04:28:14.849Z,0.10
2022-11-21T04:30:43.934Z,0.20
2022-11-21T04:33:16.436Z,0.10
2022-11-21T04:35:46.268Z,0.10
2022-11-21T04:38:16.235Z,0.50
2022-11-21T04:40:46.229Z,0.13
2022-11-21T04:43:15.141Z,0.00
2022-11-21T04:45:44.851Z,0.10
2022-11-21T04:48:15.192Z,0.10
2022-11-21T04:50:44.183Z,0.10
2022-11-21T04:53:13.079Z,0.47
2022-11-21T04:55:42.170Z,0.13
2022-11-21T04:58:13.124Z,0.17
2022-11-21T05:00:42.110Z,0.05
2022-11-21T05:03:11.253Z,0.10
2022-11-21T05:05:42.009Z,0.10
2022-11-21T05:08:11.028Z,0.10
2022-11-21T05:10:53.790Z,0.15
2022-11-21T05:13:22.817Z,0.10
2022-11-21T05:15:58.335Z,0.17
2022-11-21T05:18:27.376Z,0.65
2022-11-21T05:20:57.884Z,0.10
2022-11-21T05:23:26.945Z,0.20
2022-11-21T05:25:55.998Z,0.45
2022-11-21T05:28:25.072Z,1.05
2022-11-21T05:30:53.996Z,0.17
2022-11-21T05:33:23.092Z,0.40
2022-11-21T05:35:53.164Z,0.20
2022-11-21T05:38:23.547Z,0.20
2022-11-21T05:40:53.732Z,0.10
2022-11-21T05:43:45.496Z,0.17
2022-11-21T05:46:17.856Z,0.50
2022-11-21T05:48:47.455Z,0.15
2022-11-21T05:51:16.818Z,0.00
2022-11-21T05:53:48.361Z,0.30
2022-11-21T05:56:21.441Z,0.10
2022-11-21T05:58:50.704Z,0.57
2022-11-21T06:01:40.533Z,0.10
2022-11-21T06:04:09.085Z,0.10
2022-11-21T06:06:38.779Z,0.22
2022-11-21T06:09:11.303Z,0.45
2022-11-21T06:11:40.334Z,1.00
2022-11-21T06:14:09.447Z,0.30
2022-11-21T06:16:38.501Z,0.10
2022-11-21T06:19:07.675Z,0.05
2022-11-21T06:21:37.614Z,1.08
2022-11-21T06:24:12.434Z,0.88
2022-11-21T06:26:41.661Z,0.10
2022-11-21T06:29:12.918Z,0.20
2022-11-21T06:31:41.990Z,0.50
2022-11-21T06:34:11.127Z,0.43
2022-11-21T06:36:40.188Z,0.30
2022-11-21T06:39:10.799Z,0.10
2022-11-21T06:41:39.862Z,0.30
2022-11-21T06:44:09.076Z,0.10
2022-11-21T06:46:38.163Z,0.15
2022-11-21T06:49:07.631Z,0.10
2022-11-21T06:51:36.656Z,0.10
2022-11-21T06:54:05.786Z,0.20
2022-11-21T06:56:36.341Z,0.10
2022-11-21T06:59:05.695Z,0.00
2022-11-21T07:01:34.715Z,0.03
2022-11-21T07:04:03.826Z,0.75
2022-11-21T07:06:33.093Z,0.75
2022-11-21T07:11:52.796Z,0.57
2022-11-21T07:14:20.850Z,0.30
2022-11-21T07:16:49.968Z,0.32
2022-11-21T07:19:19.245Z,0.43
2022-11-21T07:21:48.125Z,0.10
2022-11-21T07:24:17.078Z,1.23
2022-11-21T07:26:45.925Z,0.88
2022-11-21T07:29:16.231Z,0.20
2022-11-21T07:31:45.908Z,0.43
2022-11-21T07:34:14.987Z,0.65
2022-11-21T07:36:45.084Z,0.10
2022-11-21T07:39:14.361Z,0.22
2022-11-21T08:35:13.420Z,0.40
2022-11-21T08:37:42.527Z,0.10
2022-11-21T08:40:12.622Z,1.08
2022-11-21T08:42:42.244Z,0.20
2022-11-21T08:45:12.121Z,0.10
2022-11-21T08:47:41.648Z,0.85
2022-11-21T08:50:12.486Z,0.00
2022-11-21T08:52:41.761Z,0.15
2022-11-21T08:55:11.611Z,0.20
2022-11-21T08:57:43.183Z,0.57
2022-11-21T09:00:14.073Z,0.45
2022-11-21T09:02:43.187Z,0.15
2022-11-21T09:05:13.657Z,0.73
2022-11-21T09:07:42.851Z,0.13
2022-11-21T09:10:12.469Z,0.30
2022-11-21T09:12:41.595Z,0.82
2022-11-21T09:15:30.196Z,0.52
2022-11-21T09:18:05.188Z,0.13
2022-11-21T09:20:40.777Z,0.10
2022-11-21T09:23:11.312Z,0.10
2022-11-21T09:25:40.497Z,0.77
2022-11-21T09:28:11.731Z,0.65
2022-11-21T09:30:41.350Z,0.38
2022-11-21T09:33:15.472Z,0.13
2022-11-21T09:35:47.914Z,0.20
2022-11-21T09:38:22.477Z,0.10
2022-11-21T09:40:54.527Z,0.10
2022-11-21T09:43:45.633Z,0.20
2022-11-21T09:46:17.371Z,0.32
2022-11-21T09:48:57.900Z,0.17
2022-11-21T09:51:31.058Z,0.30
2022-11-21T09:56:33.674Z,0.10
2022-11-21T09:59:16.211Z,0.52
2022-11-21T10:01:45.293Z,0.20
2022-11-21T10:04:14.571Z,0.40
2022-11-21T10:06:53.107Z,0.55
2022-11-21T10:09:33.784Z,0.32
2022-11-21T10:12:42.803Z,0.20
2022-11-21T10:15:25.416Z,0.43
2022-11-21T10:18:17.399Z,0.20
2022-11-21T10:20:56.183Z,0.20
2022-11-21T10:23:39.332Z,0.10
2022-11-21T10:26:17.754Z,0.93
2022-11-21T10:28:53.733Z,0.50
2022-11-21T10:31:24.376Z,0.20
2022-11-21T10:33:55.935Z,0.10
2022-11-21T10:36:31.496Z,0.32
2022-11-21T10:39:07.355Z,0.25
2022-11-21T10:41:43.694Z,0.20
2022-11-21T10:44:42.136Z,0.75
2022-11-21T10:47:28.058Z,0.22
2022-11-21T10:50:06.385Z,0.10
2022-11-21T10:52:38.410Z,0.20
2022-11-21T10:55:12.272Z,0.47
2022-11-21T10:57:47.007Z,0.40
2022-11-21T11:00:22.562Z,0.52
2022-11-21T11:03:05.815Z,0.20
2022-11-21T11:05:37.632Z,0.40
2022-11-21T11:08:11.432Z,0.10
2022-11-21T11:11:09.633Z,0.30
2022-11-21T11:13:57.801Z,0.10
2022-11-21T11:16:28.627Z,0.10
2022-11-21T11:19:01.521Z,0.43
2022-11-21T11:21:37.194Z,0.40
2022-11-21T11:24:24.382Z,0.57
2022-11-21T11:27:00.207Z,0.10
2022-11-21T11:29:31.607Z,0.20
2022-11-21T11:32:04.665Z,0.40
2022-11-21T11:34:40.925Z,0.20
2022-11-21T11:37:15.304Z,0.10
2022-11-21T11:39:57.778Z,0.30
2022-11-21T11:43:18.081Z,0.10
2022-11-21T11:46:22.403Z,0.20
2022-11-21T11:49:17.557Z,0.25
2022-11-21T11:51:47.799Z,0.55
2022-11-21T11:54:20.750Z,0.25
2022-11-21T11:56:50.390Z,0.10
2022-11-21T11:59:29.203Z,0.20
2022-11-21T12:02:08.931Z,0.65
2022-11-21T12:04:48.525Z,0.28
2022-11-21T12:10:16.776Z,0.30
2022-11-21T12:12:51.758Z,0.20
2022-11-21T12:15:44.201Z,0.20
2022-11-21T12:18:25.684Z,0.43
2022-11-21T12:21:01.495Z,0.43
2022-11-21T12:23:33.403Z,0.32
2022-11-21T12:26:16.360Z,0.20
2022-11-21T12:29:00.825Z,0.20
2022-11-21T12:31:45.380Z,0.20
2022-11-21T12:34:28.458Z,0.30
2022-11-21T12:37:01.201Z,0.52
2022-11-21T12:39:48.401Z,0.45
2022-11-21T12:42:51.129Z,0.20
2022-11-21T12:45:30.035Z,0.10
2022-11-21T12:48:38.070Z,0.95
2022-11-21T12:52:11.150Z,0.20
2022-11-21T12:55:00.998Z,0.10
2022-11-21T12:57:38.981Z,0.20
2022-11-21T13:00:16.755Z,0.20
2022-11-21T13:03:04.966Z,0.20
2022-11-21T13:05:39.863Z,0.47
2022-11-21T13:08:12.142Z,0.65
2022-11-21T13:10:49.413Z,0.30
2022-11-21T13:13:24.325Z,0.30
2022-11-21T13:16:00.181Z,0.30
2022-11-21T13:18:33.460Z,0.30
2022-11-21T13:21:04.031Z,0.10
2022-11-21T13:23:51.437Z,0.30
2022-11-21T13:26:51.976Z,0.40
2022-11-21T13:29:21.605Z,1.10
2022-11-21T13:31:51.164Z,0.35
2022-11-21T13:34:41.075Z,0.28
2022-11-21T13:37:11.569Z,0.57
2022-11-21T13:39:40.899Z,0.08
2022-11-21T13:42:32.375Z,0.17
2022-11-21T13:45:39.304Z,0.30
2022-11-21T13:48:48.681Z,0.20
2022-11-21T13:51:42.166Z,0.10
2022-11-21T13:55:01.473Z,0.45
2022-11-21T13:57:46.201Z,0.38
2022-11-21T14:00:49.778Z,0.13
2022-11-21T14:03:51.507Z,0.20
2022-11-21T14:06:37.588Z,0.57
2022-11-21T14:09:25.211Z,0.50
2022-11-21T14:12:01.482Z,0.30
2022-11-21T14:14:38.722Z,0.20
2022-11-21T14:17:44.790Z,0.85
2022-11-21T14:20:22.812Z,1.85
2022-11-21T14:23:18.026Z,0.98
2022-11-21T14:25:50.600Z,1.30
2022-11-21T14:28:28.424Z,0.52
2022-11-21T14:31:02.155Z,0.68
2022-11-21T14:33:33.503Z,0.45
2022-11-21T14:36:06.578Z,1.13
2022-11-21T14:38:43.410Z,0.17
2022-11-21T14:41:35.098Z,1.13
2022-11-21T14:44:18.548Z,0.40
2022-11-21T14:46:48.274Z,1.48
2022-11-21T14:49:30.776Z,1.00
2022-11-21T14:52:04.664Z,0.73
2022-11-21T14:55:15.035Z,1.83
2022-11-21T14:57:42.186Z,1.08
2022-11-21T15:00:51.559Z,1.65
2022-11-21T15:03:18.594Z,0.65
2022-11-21T15:06:01.813Z,1.13
2022-11-21T15:11:21.567Z,1.25
2022-11-21T15:14:15.101Z,1.00
2022-11-21T15:16:48.023Z,2.72
2022-11-21T15:19:23.150Z,4.20
2022-11-21T15:21:53.010Z,4.55
2022-11-21T15:24:32.091Z,1.98
2022-11-21T15:27:01.653Z,1.33
2022-11-21T15:29:33.914Z,2.50
2022-11-21T15:32:16.591Z,4.50
2022-11-21T15:34:47.277Z,2.75
2022-11-21T15:37:19.263Z,3.78
2022-11-21T15:39:50.763Z,3.97
2022-11-21T15:42:39.378Z,1.52
2022-11-21T15:45:32.933Z,1.48
2022-11-21T15:48:06.757Z,1.88
2022-11-21T15:50:36.924Z,2.22
2022-11-21T15:53:05.979Z,3.83
2022-11-21T15:55:47.153Z,0.88
2022-11-21T15:58:17.687Z,1.35
2022-11-21T16:00:47.111Z,1.58
2022-11-21T16:03:17.694Z,1.02
2022-11-21T16:05:49.279Z,0.68
2022-11-21T16:08:18.402Z,1.30
2022-11-21T16:10:48.700Z,1.38
2022-11-21T16:13:21.544Z,1.80
2022-11-21T16:18:26.883Z,0.52
2022-11-21T16:21:08.084Z,0.25
2022-11-21T16:23:38.216Z,0.70
2022-11-21T16:26:10.200Z,1.00
2022-11-21T16:28:40.831Z,0.35
2022-11-21T16:31:19.405Z,1.08
2022-11-21T16:33:49.945Z,0.35
2022-11-21T16:36:21.749Z,0.52
2022-11-21T16:38:51.267Z,0.68
2022-11-21T16:41:21.282Z,0.65
2022-11-21T16:43:52.729Z,0.77
2022-11-21T16:46:23.385Z,1.65
2022-11-21T16:49:00.744Z,1.35
2022-11-21T16:51:31.152Z,0.70
2022-11-21T16:54:05.671Z,1.10
2022-11-21T16:56:37.751Z,2.08
2022-11-21T16:59:07.221Z,1.83
2022-11-21T17:01:36.562Z,2.08
2022-11-21T17:04:08.323Z,2.28
2022-11-21T17:06:39.943Z,0.98
2022-11-21T17:09:09.114Z,1.13
2022-11-21T17:11:39.214Z,1.95
2022-11-21T17:14:09.850Z,1.38
2022-11-21T17:16:40.537Z,0.65
2022-11-21T17:19:16.921Z,0.32
2022-11-21T17:21:47.122Z,1.20
2022-11-21T17:24:16.634Z,0.85
2022-11-21T17:26:45.868Z,0.60
2022-11-21T17:29:16.021Z,0.85
2022-11-21T17:31:47.018Z,0.60
2022-11-21T17:34:32.759Z,0.88
2022-11-21T17:37:03.008Z,1.92
2022-11-21T17:39:33.416Z,1.25
2022-11-21T17:42:03.041Z,0.57
2022-11-21T17:44:35.238Z,1.27
2022-11-21T17:47:04.947Z,1.03
2022-11-21T17:49:37.383Z,0.55
2022-11-21T17:52:08.185Z,0.38
2022-11-21T17:54:42.956Z,1.45
2022-11-21T17:57:12.948Z,1.58
2022-11-21T17:59:43.678Z,1.02
2022-11-21T18:02:13.847Z,1.15
2022-11-21T18:04:45.059Z,1.98
2022-11-21T18:07:15.854Z,1.83
2022-11-21T18:09:45.891Z,0.63
2022-11-21T18:12:15.421Z,1.90
2022-11-21T18:14:45.229Z,1.40
2022-11-21T18:17:15.110Z,1.92
2022-11-21T18:19:47.406Z,2.50
2022-11-21T18:22:16.932Z,0.90
2022-11-21T18:24:47.467Z,1.50
2022-11-21T18:27:16.890Z,0.82
2022-11-21T18:29:49.835Z,1.38
2022-11-21T18:32:23.061Z,1.40
2022-11-21T18:34:53.767Z,0.90
2022-11-21T18:37:23.793Z,1.73
2022-11-21T18:39:54.332Z,0.40
2022-11-21T18:42:23.695Z,0.52
2022-11-21T18:44:53.621Z,0.70
2022-11-21T18:47:23.304Z,1.27
2022-11-21T18:49:55.585Z,1.30
2022-11-21T18:52:25.820Z,0.90
2022-11-21T18:55:08.782Z,0.57
2022-11-21T18:57:37.948Z,0.25
2022-11-21T19:00:08.858Z,0.40
2022-11-21T19:02:38.458Z,1.33
2022-11-21T19:05:17.573Z,0.47
2022-11-21T19:07:50.586Z,0.88
2022-11-21T19:10:41.953Z,0.90
2022-11-21T19:13:13.328Z,0.30
2022-11-21T19:15:49.153Z,0.52
2022-11-21T19:18:18.676Z,0.85
2022-11-21T19:20:50.185Z,0.10
2022-11-21T19:23:20.711Z,0.40
2022-11-21T19:25:49.799Z,0.63
2022-11-21T19:28:19.106Z,0.30
2022-11-21T19:30:51.339Z,1.38
2022-11-21T19:33:21.524Z,2.28
2022-11-21T19:35:52.711Z,1.25
2022-11-21T19:38:22.775Z,0.98
2022-11-21T19:41:09.376Z,1.42
2022-11-21T19:43:38.719Z,0.75
2022-11-21T19:46:09.971Z,0.90
2022-11-21T19:48:39.237Z,0.65
2022-11-21T19:51:10.914Z,1.15
2022-11-21T19:53:41.196Z,0.75
2022-11-21T19:56:18.070Z,0.73
2022-11-21T19:58:50.212Z,0.30
2022-11-21T20:01:22.379Z,1.20
2022-11-21T20:03:54.238Z,1.00
2022-11-21T20:06:46.283Z,0.57
2022-11-21T20:09:17.783Z,0.60
2022-11-21T20:11:50.534Z,0.55
2022-11-21T20:14:25.356Z,0.80
2022-11-21T20:16:54.996Z,1.00
2022-11-21T20:19:42.077Z,0.40
2022-11-21T20:22:16.115Z,0.15
2022-11-21T20:24:50.400Z,0.82
2022-11-21T20:27:23.656Z,0.43
2022-11-21T20:29:54.519Z,0.77
2022-11-21T20:32:23.657Z,0.20
2022-11-21T20:34:52.625Z,0.45
2022-11-21T20:37:34.321Z,0.70
2022-11-21T20:40:14.280Z,0.25
2022-11-21T20:42:43.580Z,0.55
2022-11-21T20:48:09.850Z,0.60
2022-11-21T20:51:42.167Z,0.52
2022-11-21T20:54:05.667Z,0.82
2022-11-21T20:56:49.856Z,0.30
2022-11-21T20:59:19.308Z,1.27
2022-11-21T21:01:48.564Z,0.20
2022-11-21T21:04:17.745Z,0.63
2022-11-21T21:06:46.681Z,0.30
2022-11-21T21:09:17.660Z,0.30
2022-11-21T21:11:53.907Z,0.20
2022-11-21T21:14:23.376Z,0.20
2022-11-21T21:16:52.614Z,0.80
2022-11-21T21:19:22.014Z,0.35
2022-11-21T21:21:50.985Z,0.55
2022-11-21T21:24:22.996Z,0.68
2022-11-21T21:26:54.250Z,1.23
2022-11-21T21:29:23.450Z,0.20
2022-11-21T21:31:53.082Z,0.20
2022-11-21T21:34:23.881Z,0.47
2022-11-21T21:37:05.083Z,1.67
2022-11-21T21:39:35.857Z,0.68
2022-11-21T21:42:05.095Z,0.20
2022-11-21T21:44:37.821Z,0.47
2022-11-21T21:47:07.458Z,1.70
2022-11-21T21:49:37.887Z,1.58
2022-11-21T21:52:07.547Z,1.75
2022-11-21T21:54:38.684Z,1.02
2022-11-21T21:57:07.817Z,0.30
2022-11-21T21:59:37.152Z,0.43
2022-11-21T22:02:06.518Z,1.58
2022-11-21T22:04:35.991Z,1.23
2022-11-21T22:07:05.888Z,0.80
2022-11-21T22:09:35.442Z,0.85
2022-11-21T22:12:06.953Z,1.23
2022-11-21T22:14:36.639Z,0.70
2022-11-21T22:17:05.837Z,0.25
2022-11-21T22:19:34.856Z,0.65
2022-11-21T22:22:04.132Z,0.30
2022-11-21T22:24:33.146Z,0.55
2022-11-21T22:27:02.247Z,0.28
2022-11-21T22:29:32.685Z,0.45
2022-11-21T22:32:20.012Z,0.60
2022-11-21T22:34:49.254Z,0.65
2022-11-21T22:37:18.430Z,0.60
2022-11-21T22:39:47.623Z,0.20
2022-11-21T22:42:24.373Z,1.15
2022-11-21T22:44:54.901Z,1.48
2022-11-21T22:47:42.406Z,0.47
2022-11-21T22:50:16.421Z,0.75
2022-11-21T22:52:48.677Z,0.50
2022-11-21T22:55:18.126Z,0.43
2022-11-21T22:57:47.471Z,0.43
2022-11-21T23:00:19.584Z,1.70
2022-11-21T23:02:48.725Z,0.37
2022-11-21T23:05:17.893Z,0.60
2022-11-21T23:07:47.360Z,0.90
2022-11-21T23:10:16.605Z,0.47
2022-11-21T23:12:45.765Z,0.38
2022-11-21T23:15:15.020Z,0.68
2022-11-21T23:17:51.030Z,0.93
2022-11-21T23:20:21.657Z,0.95
2022-11-21T23:22:50.625Z,1.00
2022-11-21T23:25:19.692Z,0.88
2022-11-21T23:27:48.767Z,0.30
2022-11-21T23:30:18.592Z,0.73
2022-11-21T23:32:49.280Z,0.68
2022-11-21T23:35:18.641Z,0.75
2022-11-21T23:37:47.661Z,0.65
2022-11-21T23:40:16.854Z,0.35
2022-11-21T23:42:47.014Z,1.63
2022-11-21T23:45:16.278Z,0.70
2022-11-21T23:47:45.407Z,0.22
2022-11-21T23:50:16.601Z,0.70
2022-11-21T23:52:45.775Z,0.50
2022-11-21T23:55:14.887Z,0.17
2022-11-21T23:57:44.120Z,0.40
